sensor_id;sensor_type;location;lat;lon;timestamp;P1;durP1;ratioP1;P2;durP2;ratioP2
54271;SDS011;40184;53.362;5.216;2024-03-02T00:01:10;8.88;;;3.20;;
54271;SDS011;40184;53.362;5.216;2024-03-02T00:03:37;7.47;;;2.92;;
54271;SDS011;40184;53.362;5.216;2024-03-02T00:06:04;10.90;;;2.47;;
54271;SDS011;40184;53.362;5.216;2024-03-02T00:08:30;18.75;;;4.03;;
54271;SDS011;40184;53.362;5.216;2024-03-02T00:10:59;7.07;;;2.63;;
54271;SDS011;40184;53.362;5.216;2024-03-02T00:13:26;6.15;;;2.30;;
54271;SDS011;40184;53.362;5.216;2024-03-02T00:15:56;9.40;;;2.22;;
54271;SDS011;40184;53.362;5.216;2024-03-02T00:20:48;11.00;;;2.90;;
54271;SDS011;40184;53.362;5.216;2024-03-02T00:23:14;12.82;;;2.42;;
54271;SDS011;40184;53.362;5.216;2024-03-02T00:25:42;11.43;;;3.10;;
54271;SDS011;40184;53.362;5.216;2024-03-02T00:28:19;8.68;;;2.03;;
54271;SDS011;40184;53.362;5.216;2024-03-02T00:31:04;6.15;;;2.25;;
54271;SDS011;40184;53.362;5.216;2024-03-02T00:33:37;17.88;;;3.00;;
54271;SDS011;40184;53.362;5.216;2024-03-02T00:36:05;8.63;;;2.15;;
54271;SDS011;40184;53.362;5.216;2024-03-02T00:38:32;6.40;;;2.17;;
54271;SDS011;40184;53.362;5.216;2024-03-02T00:40:59;6.60;;;2.22;;
54271;SDS011;40184;53.362;5.216;2024-03-02T00:46:11;6.60;;;2.00;;
54271;SDS011;40184;53.362;5.216;2024-03-02T00:48:38;8.18;;;2.45;;
54271;SDS011;40184;53.362;5.216;2024-03-02T00:51:04;12.50;;;3.63;;
54271;SDS011;40184;53.362;5.216;2024-03-02T00:53:31;7.60;;;1.92;;
54271;SDS011;40184;53.362;5.216;2024-03-02T00:56:00;6.13;;;2.17;;
54271;SDS011;40184;53.362;5.216;2024-03-02T00:58:27;10.85;;;2.88;;
54271;SDS011;40184;53.362;5.216;2024-03-02T01:00:53;8.68;;;3.33;;
54271;SDS011;40184;53.362;5.216;2024-03-02T01:03:19;7.30;;;2.58;;
54271;SDS011;40184;53.362;5.216;2024-03-02T01:05:45;6.40;;;2.88;;
54271;SDS011;40184;53.362;5.216;2024-03-02T01:08:11;8.25;;;2.60;;
54271;SDS011;40184;53.362;5.216;2024-03-02T01:10:37;5.70;;;2.40;;
54271;SDS011;40184;53.362;5.216;2024-03-02T01:13:03;6.38;;;2.20;;
54271;SDS011;40184;53.362;5.216;2024-03-02T01:15:29;5.38;;;2.22;;
54271;SDS011;40184;53.362;5.216;2024-03-02T01:17:55;11.25;;;2.88;;
54271;SDS011;40184;53.362;5.216;2024-03-02T01:20:22;8.48;;;2.92;;
54271;SDS011;40184;53.362;5.216;2024-03-02T01:22:49;12.38;;;2.67;;
54271;SDS011;40184;53.362;5.216;2024-03-02T01:25:15;7.05;;;2.13;;
54271;SDS011;40184;53.362;5.216;2024-03-02T01:27:41;11.57;;;2.60;;
54271;SDS011;40184;53.362;5.216;2024-03-02T01:30:07;7.68;;;1.90;;
54271;SDS011;40184;53.362;5.216;2024-03-02T01:32:33;8.32;;;2.45;;
54271;SDS011;40184;53.362;5.216;2024-03-02T01:34:59;15.25;;;3.47;;
54271;SDS011;40184;53.362;5.216;2024-03-02T01:37:25;9.02;;;2.63;;
54271;SDS011;40184;53.362;5.216;2024-03-02T01:39:51;13.70;;;2.60;;
54271;SDS011;40184;53.362;5.216;2024-03-02T01:42:17;10.55;;;2.42;;
54271;SDS011;40184;53.362;5.216;2024-03-02T01:44:43;6.40;;;3.13;;
54271;SDS011;40184;53.362;5.216;2024-03-02T01:47:09;6.78;;;2.58;;
54271;SDS011;40184;53.362;5.216;2024-03-02T01:49:36;4.20;;;1.70;;
54271;SDS011;40184;53.362;5.216;2024-03-02T01:52:03;4.47;;;2.38;;
54271;SDS011;40184;53.362;5.216;2024-03-02T01:54:30;7.63;;;2.30;;
54271;SDS011;40184;53.362;5.216;2024-03-02T01:56:56;7.72;;;3.35;;
54271;SDS011;40184;53.362;5.216;2024-03-02T01:59:22;8.73;;;3.22;;
54271;SDS011;40184;53.362;5.216;2024-03-02T02:01:48;9.70;;;2.95;;
54271;SDS011;40184;53.362;5.216;2024-03-02T02:04:14;8.63;;;2.50;;
54271;SDS011;40184;53.362;5.216;2024-03-02T02:06:40;11.27;;;2.95;;
54271;SDS011;40184;53.362;5.216;2024-03-02T02:09:06;9.85;;;2.40;;
54271;SDS011;40184;53.362;5.216;2024-03-02T02:11:33;9.50;;;2.92;;
54271;SDS011;40184;53.362;5.216;2024-03-02T02:13:59;7.03;;;3.17;;
54271;SDS011;40184;53.362;5.216;2024-03-02T02:16:25;8.35;;;2.50;;
54271;SDS011;40184;53.362;5.216;2024-03-02T02:18:51;12.45;;;2.83;;
54271;SDS011;40184;53.362;5.216;2024-03-02T02:21:18;8.13;;;2.20;;
54271;SDS011;40184;53.362;5.216;2024-03-02T02:23:44;8.75;;;2.38;;
54271;SDS011;40184;53.362;5.216;2024-03-02T02:26:13;5.80;;;1.67;;
54271;SDS011;40184;53.362;5.216;2024-03-02T02:28:39;6.03;;;2.15;;
54271;SDS011;40184;53.362;5.216;2024-03-02T02:31:11;7.57;;;1.50;;
54271;SDS011;40184;53.362;5.216;2024-03-02T02:33:39;6.05;;;0.90;;
54271;SDS011;40184;53.362;5.216;2024-03-02T02:36:05;3.13;;;1.00;;
54271;SDS011;40184;53.362;5.216;2024-03-02T02:38:32;3.58;;;0.98;;
54271;SDS011;40184;53.362;5.216;2024-03-02T02:40:59;1.80;;;0.70;;
54271;SDS011;40184;53.362;5.216;2024-03-02T02:43:25;6.55;;;1.05;;
54271;SDS011;40184;53.362;5.216;2024-03-02T02:45:51;3.03;;;1.30;;
54271;SDS011;40184;53.362;5.216;2024-03-02T02:48:17;4.05;;;0.70;;
54271;SDS011;40184;53.362;5.216;2024-03-02T02:50:43;1.30;;;0.40;;
54271;SDS011;40184;53.362;5.216;2024-03-02T02:53:09;1.92;;;0.77;;
54271;SDS011;40184;53.362;5.216;2024-03-02T02:55:35;2.05;;;1.23;;
54271;SDS011;40184;53.362;5.216;2024-03-02T02:58:05;2.13;;;0.60;;
54271;SDS011;40184;53.362;5.216;2024-03-02T03:00:31;4.20;;;0.80;;
54271;SDS011;40184;53.362;5.216;2024-03-02T03:02:57;3.13;;;0.75;;
54271;SDS011;40184;53.362;5.216;2024-03-02T03:05:23;1.23;;;0.55;;
54271;SDS011;40184;53.362;5.216;2024-03-02T03:07:49;4.80;;;0.55;;
54271;SDS011;40184;53.362;5.216;2024-03-02T03:10:16;2.75;;;0.68;;
54271;SDS011;40184;53.362;5.216;2024-03-02T03:12:42;3.28;;;0.68;;
54271;SDS011;40184;53.362;5.216;2024-03-02T03:15:09;2.58;;;0.50;;
54271;SDS011;40184;53.362;5.216;2024-03-02T03:17:35;4.13;;;0.95;;
54271;SDS011;40184;53.362;5.216;2024-03-02T03:20:02;4.82;;;0.88;;
54271;SDS011;40184;53.362;5.216;2024-03-02T03:22:29;4.53;;;0.80;;
54271;SDS011;40184;53.362;5.216;2024-03-02T03:24:56;10.30;;;1.08;;
54271;SDS011;40184;53.362;5.216;2024-03-02T03:27:22;1.75;;;0.57;;
54271;SDS011;40184;53.362;5.216;2024-03-02T03:29:48;5.65;;;1.13;;
54271;SDS011;40184;53.362;5.216;2024-03-02T03:32:14;1.80;;;0.80;;
54271;SDS011;40184;53.362;5.216;2024-03-02T03:34:41;2.17;;;0.60;;
54271;SDS011;40184;53.362;5.216;2024-03-02T03:37:07;2.40;;;0.50;;
54271;SDS011;40184;53.362;5.216;2024-03-02T03:39:34;3.35;;;0.75;;
54271;SDS011;40184;53.362;5.216;2024-03-02T03:42:01;3.13;;;1.10;;
54271;SDS011;40184;53.362;5.216;2024-03-02T03:44:27;3.88;;;0.88;;
54271;SDS011;40184;53.362;5.216;2024-03-02T03:46:53;6.53;;;0.95;;
54271;SDS011;40184;53.362;5.216;2024-03-02T03:49:19;3.28;;;0.63;;
54271;SDS011;40184;53.362;5.216;2024-03-02T03:51:45;3.03;;;0.90;;
54271;SDS011;40184;53.362;5.216;2024-03-02T03:54:11;4.35;;;0.70;;
54271;SDS011;40184;53.362;5.216;2024-03-02T03:56:37;3.47;;;0.75;;
54271;SDS011;40184;53.362;5.216;2024-03-02T03:59:03;5.63;;;0.68;;
54271;SDS011;40184;53.362;5.216;2024-03-02T04:01:30;4.10;;;1.20;;
54271;SDS011;40184;53.362;5.216;2024-03-02T04:03:59;3.97;;;1.40;;
54271;SDS011;40184;53.362;5.216;2024-03-02T04:06:27;6.82;;;1.40;;
54271;SDS011;40184;53.362;5.216;2024-03-02T04:08:53;5.57;;;1.20;;
54271;SDS011;40184;53.362;5.216;2024-03-02T04:11:19;1.98;;;0.63;;
54271;SDS011;40184;53.362;5.216;2024-03-02T04:13:45;3.10;;;1.85;;
54271;SDS011;40184;53.362;5.216;2024-03-02T04:16:11;3.67;;;1.77;;
54271;SDS011;40184;53.362;5.216;2024-03-02T04:18:37;3.05;;;1.60;;
54271;SDS011;40184;53.362;5.216;2024-03-02T04:21:04;2.80;;;1.77;;
54271;SDS011;40184;53.362;5.216;2024-03-02T04:23:30;3.35;;;1.70;;
54271;SDS011;40184;53.362;5.216;2024-03-02T04:25:56;2.15;;;1.40;;
54271;SDS011;40184;53.362;5.216;2024-03-02T04:28:22;1.65;;;1.50;;
54271;SDS011;40184;53.362;5.216;2024-03-02T04:30:48;5.60;;;2.00;;
54271;SDS011;40184;53.362;5.216;2024-03-02T04:33:14;6.60;;;1.70;;
54271;SDS011;40184;53.362;5.216;2024-03-02T04:35:40;4.10;;;1.60;;
54271;SDS011;40184;53.362;5.216;2024-03-02T04:38:07;4.05;;;1.70;;
54271;SDS011;40184;53.362;5.216;2024-03-02T04:40:33;3.47;;;1.90;;
54271;SDS011;40184;53.362;5.216;2024-03-02T04:42:59;5.25;;;2.17;;
54271;SDS011;40184;53.362;5.216;2024-03-02T04:45:25;4.38;;;2.03;;
54271;SDS011;40184;53.362;5.216;2024-03-02T04:47:51;4.47;;;1.75;;
54271;SDS011;40184;53.362;5.216;2024-03-02T04:50:17;1.77;;;1.48;;
54271;SDS011;40184;53.362;5.216;2024-03-02T04:52:44;5.05;;;1.40;;
54271;SDS011;40184;53.362;5.216;2024-03-02T04:55:10;14.02;;;2.17;;
54271;SDS011;40184;53.362;5.216;2024-03-02T04:57:42;2.15;;;1.17;;
54271;SDS011;40184;53.362;5.216;2024-03-02T05:00:08;3.03;;;1.55;;
54271;SDS011;40184;53.362;5.216;2024-03-02T05:02:35;2.30;;;1.40;;
54271;SDS011;40184;53.362;5.216;2024-03-02T05:05:01;3.00;;;1.25;;
54271;SDS011;40184;53.362;5.216;2024-03-02T05:07:28;1.75;;;1.48;;
54271;SDS011;40184;53.362;5.216;2024-03-02T05:09:54;4.70;;;1.35;;
54271;SDS011;40184;53.362;5.216;2024-03-02T05:12:20;4.22;;;1.77;;
54271;SDS011;40184;53.362;5.216;2024-03-02T05:15:09;2.05;;;1.30;;
54271;SDS011;40184;53.362;5.216;2024-03-02T05:17:39;4.22;;;1.17;;
54271;SDS011;40184;53.362;5.216;2024-03-02T05:20:05;4.10;;;1.15;;
54271;SDS011;40184;53.362;5.216;2024-03-02T05:22:33;4.40;;;1.10;;
54271;SDS011;40184;53.362;5.216;2024-03-02T05:24:59;2.85;;;0.98;;
54271;SDS011;40184;53.362;5.216;2024-03-02T05:27:26;5.10;;;1.35;;
54271;SDS011;40184;53.362;5.216;2024-03-02T05:29:52;4.53;;;1.30;;
54271;SDS011;40184;53.362;5.216;2024-03-02T05:32:18;1.63;;;1.00;;
54271;SDS011;40184;53.362;5.216;2024-03-02T05:34:44;1.40;;;0.93;;
54271;SDS011;40184;53.362;5.216;2024-03-02T05:37:10;3.78;;;1.10;;
54271;SDS011;40184;53.362;5.216;2024-03-02T05:39:36;2.08;;;1.02;;
54271;SDS011;40184;53.362;5.216;2024-03-02T05:42:02;3.45;;;1.10;;
54271;SDS011;40184;53.362;5.216;2024-03-02T05:44:29;2.65;;;1.30;;
54271;SDS011;40184;53.362;5.216;2024-03-02T05:46:55;4.32;;;1.20;;
54271;SDS011;40184;53.362;5.216;2024-03-02T05:49:21;3.88;;;1.25;;
54271;SDS011;40184;53.362;5.216;2024-03-02T05:51:47;3.78;;;1.85;;
54271;SDS011;40184;53.362;5.216;2024-03-02T05:54:13;4.13;;;1.20;;
54271;SDS011;40184;53.362;5.216;2024-03-02T05:56:39;2.20;;;1.20;;
54271;SDS011;40184;53.362;5.216;2024-03-02T05:59:05;2.55;;;1.45;;
54271;SDS011;40184;53.362;5.216;2024-03-02T06:01:44;2.90;;;1.42;;
54271;SDS011;40184;53.362;5.216;2024-03-02T06:04:11;2.25;;;1.58;;
54271;SDS011;40184;53.362;5.216;2024-03-02T06:06:37;5.45;;;2.13;;
54271;SDS011;40184;53.362;5.216;2024-03-02T06:09:04;5.55;;;2.00;;
54271;SDS011;40184;53.362;5.216;2024-03-02T06:11:33;2.88;;;1.35;;
54271;SDS011;40184;53.362;5.216;2024-03-02T06:13:59;4.53;;;1.23;;
54271;SDS011;40184;53.362;5.216;2024-03-02T06:16:25;5.47;;;2.40;;
54271;SDS011;40184;53.362;5.216;2024-03-02T06:18:51;2.65;;;1.58;;
54271;SDS011;40184;53.362;5.216;2024-03-02T06:21:19;6.53;;;1.23;;
54271;SDS011;40184;53.362;5.216;2024-03-02T06:23:45;3.22;;;1.45;;
54271;SDS011;40184;53.362;5.216;2024-03-02T06:26:11;7.25;;;1.70;;
54271;SDS011;40184;53.362;5.216;2024-03-02T06:28:37;4.30;;;1.42;;
54271;SDS011;40184;53.362;5.216;2024-03-02T06:31:04;3.33;;;1.33;;
54271;SDS011;40184;53.362;5.216;2024-03-02T06:33:30;3.90;;;1.33;;
54271;SDS011;40184;53.362;5.216;2024-03-02T06:35:56;2.70;;;0.93;;
54271;SDS011;40184;53.362;5.216;2024-03-02T06:38:22;4.82;;;0.98;;
54271;SDS011;40184;53.362;5.216;2024-03-02T06:40:48;2.35;;;0.73;;
54271;SDS011;40184;53.362;5.216;2024-03-02T06:43:14;2.97;;;1.08;;
54271;SDS011;40184;53.362;5.216;2024-03-02T06:45:40;4.40;;;0.90;;
54271;SDS011;40184;53.362;5.216;2024-03-02T06:48:07;3.83;;;1.30;;
54271;SDS011;40184;53.362;5.216;2024-03-02T06:50:33;2.20;;;0.90;;
54271;SDS011;40184;53.362;5.216;2024-03-02T06:52:59;2.28;;;1.10;;
54271;SDS011;40184;53.362;5.216;2024-03-02T06:55:25;4.22;;;1.00;;
54271;SDS011;40184;53.362;5.216;2024-03-02T06:57:51;3.63;;;0.82;;
54271;SDS011;40184;53.362;5.216;2024-03-02T07:00:18;4.10;;;1.13;;
54271;SDS011;40184;53.362;5.216;2024-03-02T07:02:45;1.77;;;1.13;;
54271;SDS011;40184;53.362;5.216;2024-03-02T07:05:15;9.20;;;1.63;;
54271;SDS011;40184;53.362;5.216;2024-03-02T07:07:41;4.03;;;1.27;;
54271;SDS011;40184;53.362;5.216;2024-03-02T07:10:07;4.15;;;1.17;;
54271;SDS011;40184;53.362;5.216;2024-03-02T07:12:33;2.03;;;1.00;;
54271;SDS011;40184;53.362;5.216;2024-03-02T07:14:59;8.07;;;1.20;;
54271;SDS011;40184;53.362;5.216;2024-03-02T07:17:28;6.18;;;1.27;;
54271;SDS011;40184;53.362;5.216;2024-03-02T07:19:54;4.05;;;1.20;;
54271;SDS011;40184;53.362;5.216;2024-03-02T07:22:20;4.93;;;1.40;;
54271;SDS011;40184;53.362;5.216;2024-03-02T07:24:47;3.88;;;1.10;;
54271;SDS011;40184;53.362;5.216;2024-03-02T07:27:14;4.68;;;1.25;;
54271;SDS011;40184;53.362;5.216;2024-03-02T07:29:41;3.08;;;1.20;;
54271;SDS011;40184;53.362;5.216;2024-03-02T07:32:07;5.22;;;1.00;;
54271;SDS011;40184;53.362;5.216;2024-03-02T07:34:34;2.75;;;1.00;;
54271;SDS011;40184;53.362;5.216;2024-03-02T07:37:00;5.55;;;1.00;;
54271;SDS011;40184;53.362;5.216;2024-03-02T07:39:26;2.63;;;0.90;;
54271;SDS011;40184;53.362;5.216;2024-03-02T07:41:52;3.30;;;0.95;;
54271;SDS011;40184;53.362;5.216;2024-03-02T07:44:18;4.18;;;1.40;;
54271;SDS011;40184;53.362;5.216;2024-03-02T07:46:45;2.40;;;0.70;;
54271;SDS011;40184;53.362;5.216;2024-03-02T07:49:20;1.63;;;0.68;;
54271;SDS011;40184;53.362;5.216;2024-03-02T07:51:46;6.55;;;0.98;;
54271;SDS011;40184;53.362;5.216;2024-03-02T07:54:12;3.92;;;0.77;;
54271;SDS011;40184;53.362;5.216;2024-03-02T07:56:38;3.60;;;0.90;;
54271;SDS011;40184;53.362;5.216;2024-03-02T07:59:04;5.38;;;1.05;;
54271;SDS011;40184;53.362;5.216;2024-03-02T08:01:31;5.70;;;1.85;;
54271;SDS011;40184;53.362;5.216;2024-03-02T08:03:58;2.67;;;1.15;;
54271;SDS011;40184;53.362;5.216;2024-03-02T08:06:24;4.03;;;0.98;;
54271;SDS011;40184;53.362;5.216;2024-03-02T08:08:53;4.53;;;1.05;;
54271;SDS011;40184;53.362;5.216;2024-03-02T08:11:19;3.08;;;0.82;;
54271;SDS011;40184;53.362;5.216;2024-03-02T08:13:45;2.08;;;0.80;;
54271;SDS011;40184;53.362;5.216;2024-03-02T08:16:11;4.13;;;1.17;;
54271;SDS011;40184;53.362;5.216;2024-03-02T08:18:38;3.17;;;1.02;;
54271;SDS011;40184;53.362;5.216;2024-03-02T08:21:04;1.50;;;0.65;;
54271;SDS011;40184;53.362;5.216;2024-03-02T08:23:30;3.10;;;0.95;;
54271;SDS011;40184;53.362;5.216;2024-03-02T08:25:57;4.95;;;1.35;;
54271;SDS011;40184;53.362;5.216;2024-03-02T08:28:23;4.35;;;0.80;;
54271;SDS011;40184;53.362;5.216;2024-03-02T08:30:49;1.92;;;0.70;;
54271;SDS011;40184;53.362;5.216;2024-03-02T08:33:15;2.10;;;0.57;;
54271;SDS011;40184;53.362;5.216;2024-03-02T08:35:41;3.45;;;0.95;;
54271;SDS011;40184;53.362;5.216;2024-03-02T08:38:07;4.47;;;0.85;;
54271;SDS011;40184;53.362;5.216;2024-03-02T08:40:33;5.07;;;0.90;;
54271;SDS011;40184;53.362;5.216;2024-03-02T08:42:59;9.43;;;1.02;;
54271;SDS011;40184;53.362;5.216;2024-03-02T08:45:25;2.65;;;0.82;;
54271;SDS011;40184;53.362;5.216;2024-03-02T08:47:51;5.45;;;0.95;;
54271;SDS011;40184;53.362;5.216;2024-03-02T08:50:18;4.65;;;0.90;;
54271;SDS011;40184;53.362;5.216;2024-03-02T08:52:44;6.18;;;1.52;;
54271;SDS011;40184;53.362;5.216;2024-03-02T08:55:10;5.82;;;1.40;;
54271;SDS011;40184;53.362;5.216;2024-03-02T08:57:36;7.20;;;1.00;;
54271;SDS011;40184;53.362;5.216;2024-03-02T09:00:03;6.20;;;1.60;;
54271;SDS011;40184;53.362;5.216;2024-03-02T09:02:30;4.90;;;1.35;;
54271;SDS011;40184;53.362;5.216;2024-03-02T09:04:56;5.32;;;1.75;;
54271;SDS011;40184;53.362;5.216;2024-03-02T09:07:23;3.88;;;1.20;;
54271;SDS011;40184;53.362;5.216;2024-03-02T09:09:49;6.15;;;2.10;;
54271;SDS011;40184;53.362;5.216;2024-03-02T09:12:15;5.28;;;0.98;;
54271;SDS011;40184;53.362;5.216;2024-03-02T09:14:41;3.78;;;1.33;;
54271;SDS011;40184;53.362;5.216;2024-03-02T09:17:07;7.93;;;1.58;;
54271;SDS011;40184;53.362;5.216;2024-03-02T09:19:35;5.60;;;1.30;;
54271;SDS011;40184;53.362;5.216;2024-03-02T09:22:01;4.10;;;1.15;;
54271;SDS011;40184;53.362;5.216;2024-03-02T09:24:31;3.67;;;1.08;;
54271;SDS011;40184;53.362;5.216;2024-03-02T09:27:00;4.78;;;1.10;;
54271;SDS011;40184;53.362;5.216;2024-03-02T09:29:26;4.28;;;1.17;;
54271;SDS011;40184;53.362;5.216;2024-03-02T09:31:52;4.80;;;1.33;;
54271;SDS011;40184;53.362;5.216;2024-03-02T09:34:18;3.72;;;0.80;;
54271;SDS011;40184;53.362;5.216;2024-03-02T09:36:44;6.85;;;1.70;;
54271;SDS011;40184;53.362;5.216;2024-03-02T09:39:10;10.68;;;1.90;;
54271;SDS011;40184;53.362;5.216;2024-03-02T09:41:37;4.60;;;1.25;;
54271;SDS011;40184;53.362;5.216;2024-03-02T09:44:04;8.40;;;1.42;;
54271;SDS011;40184;53.362;5.216;2024-03-02T09:46:30;3.55;;;1.13;;
54271;SDS011;40184;53.362;5.216;2024-03-02T09:48:58;7.80;;;1.77;;
54271;SDS011;40184;53.362;5.216;2024-03-02T09:51:25;5.22;;;1.27;;
54271;SDS011;40184;53.362;5.216;2024-03-02T09:53:51;5.43;;;1.02;;
54271;SDS011;40184;53.362;5.216;2024-03-02T09:56:18;3.42;;;0.88;;
54271;SDS011;40184;53.362;5.216;2024-03-02T09:58:44;4.30;;;1.25;;
54271;SDS011;40184;53.362;5.216;2024-03-02T10:01:10;3.30;;;0.90;;
54271;SDS011;40184;53.362;5.216;2024-03-02T10:03:36;3.30;;;1.10;;
54271;SDS011;40184;53.362;5.216;2024-03-02T10:06:21;7.97;;;1.55;;
54271;SDS011;40184;53.362;5.216;2024-03-02T10:08:48;9.18;;;1.92;;
54271;SDS011;40184;53.362;5.216;2024-03-02T10:11:30;8.60;;;1.10;;
54271;SDS011;40184;53.362;5.216;2024-03-02T10:14:10;3.63;;;1.27;;
54271;SDS011;40184;53.362;5.216;2024-03-02T10:16:37;6.15;;;1.42;;
54271;SDS011;40184;53.362;5.216;2024-03-02T10:19:16;6.45;;;1.63;;
54271;SDS011;40184;53.362;5.216;2024-03-02T10:21:43;3.88;;;0.93;;
54271;SDS011;40184;53.362;5.216;2024-03-02T10:24:10;3.78;;;0.98;;
54271;SDS011;40184;53.362;5.216;2024-03-02T10:26:36;3.28;;;0.80;;
54271;SDS011;40184;53.362;5.216;2024-03-02T10:29:02;6.90;;;1.20;;
54271;SDS011;40184;53.362;5.216;2024-03-02T10:31:28;8.95;;;1.65;;
54271;SDS011;40184;53.362;5.216;2024-03-02T10:33:54;4.28;;;1.27;;
54271;SDS011;40184;53.362;5.216;2024-03-02T10:36:21;10.55;;;1.38;;
54271;SDS011;40184;53.362;5.216;2024-03-02T10:38:47;2.53;;;0.77;;
54271;SDS011;40184;53.362;5.216;2024-03-02T10:41:17;3.05;;;0.90;;
54271;SDS011;40184;53.362;5.216;2024-03-02T10:43:44;4.75;;;1.08;;
54271;SDS011;40184;53.362;5.216;2024-03-02T10:46:10;2.20;;;0.82;;
54271;SDS011;40184;53.362;5.216;2024-03-02T10:48:37;3.92;;;1.08;;
54271;SDS011;40184;53.362;5.216;2024-03-02T10:51:05;4.82;;;1.50;;
54271;SDS011;40184;53.362;5.216;2024-03-02T10:53:31;3.83;;;1.58;;
54271;SDS011;40184;53.362;5.216;2024-03-02T10:55:57;3.78;;;0.88;;
54271;SDS011;40184;53.362;5.216;2024-03-02T10:58:29;5.65;;;1.10;;
54271;SDS011;40184;53.362;5.216;2024-03-02T11:00:59;3.85;;;1.00;;
54271;SDS011;40184;53.362;5.216;2024-03-02T11:03:26;6.22;;;0.98;;
54271;SDS011;40184;53.362;5.216;2024-03-02T11:05:52;5.72;;;1.02;;
54271;SDS011;40184;53.362;5.216;2024-03-02T11:08:19;6.22;;;1.38;;
54271;SDS011;40184;53.362;5.216;2024-03-02T11:10:56;8.02;;;1.20;;
54271;SDS011;40184;53.362;5.216;2024-03-02T11:13:33;5.35;;;1.30;;
54271;SDS011;40184;53.362;5.216;2024-03-02T11:15:59;4.53;;;1.00;;
54271;SDS011;40184;53.362;5.216;2024-03-02T11:18:29;10.40;;;1.38;;
54271;SDS011;40184;53.362;5.216;2024-03-02T11:20:56;6.60;;;1.23;;
54271;SDS011;40184;53.362;5.216;2024-03-02T11:23:31;6.40;;;1.48;;
54271;SDS011;40184;53.362;5.216;2024-03-02T11:28:59;6.45;;;1.58;;
54271;SDS011;40184;53.362;5.216;2024-03-02T11:31:51;7.95;;;1.20;;
54271;SDS011;40184;53.362;5.216;2024-03-02T11:34:20;3.53;;;1.33;;
54271;SDS011;40184;53.362;5.216;2024-03-02T11:36:54;6.00;;;1.10;;
54271;SDS011;40184;53.362;5.216;2024-03-02T11:39:20;9.27;;;1.58;;
54271;SDS011;40184;53.362;5.216;2024-03-02T11:41:46;6.72;;;0.88;;
54271;SDS011;40184;53.362;5.216;2024-03-02T11:44:12;3.80;;;1.77;;
54271;SDS011;40184;53.362;5.216;2024-03-02T11:46:41;2.55;;;1.42;;
54271;SDS011;40184;53.362;5.216;2024-03-02T11:49:07;7.28;;;1.20;;
54271;SDS011;40184;53.362;5.216;2024-03-02T11:51:34;7.80;;;2.10;;
54271;SDS011;40184;53.362;5.216;2024-03-02T11:54:01;2.03;;;1.15;;
54271;SDS011;40184;53.362;5.216;2024-03-02T11:56:28;7.88;;;1.98;;
54271;SDS011;40184;53.362;5.216;2024-03-02T11:58:56;5.63;;;0.77;;
54271;SDS011;40184;53.362;5.216;2024-03-02T12:01:23;6.60;;;1.80;;
54271;SDS011;40184;53.362;5.216;2024-03-02T12:03:49;3.33;;;1.42;;
54271;SDS011;40184;53.362;5.216;2024-03-02T12:06:15;5.85;;;1.50;;
54271;SDS011;40184;53.362;5.216;2024-03-02T12:08:41;3.20;;;1.00;;
54271;SDS011;40184;53.362;5.216;2024-03-02T12:11:08;8.27;;;2.50;;
54271;SDS011;40184;53.362;5.216;2024-03-02T12:13:38;5.38;;;1.48;;
54271;SDS011;40184;53.362;5.216;2024-03-02T12:16:04;4.35;;;1.10;;
54271;SDS011;40184;53.362;5.216;2024-03-02T12:18:31;6.40;;;1.02;;
54271;SDS011;40184;53.362;5.216;2024-03-02T12:20:57;6.70;;;1.77;;
54271;SDS011;40184;53.362;5.216;2024-03-02T12:23:23;3.33;;;1.33;;
54271;SDS011;40184;53.362;5.216;2024-03-02T12:25:49;5.25;;;1.13;;
54271;SDS011;40184;53.362;5.216;2024-03-02T12:28:16;3.47;;;1.05;;
54271;SDS011;40184;53.362;5.216;2024-03-02T12:30:42;3.80;;;1.40;;
54271;SDS011;40184;53.362;5.216;2024-03-02T12:33:10;6.10;;;1.30;;
54271;SDS011;40184;53.362;5.216;2024-03-02T12:35:36;2.78;;;1.10;;
54271;SDS011;40184;53.362;5.216;2024-03-02T12:38:03;4.40;;;1.50;;
54271;SDS011;40184;53.362;5.216;2024-03-02T12:40:30;2.53;;;1.13;;
54271;SDS011;40184;53.362;5.216;2024-03-02T12:42:57;3.60;;;1.42;;
54271;SDS011;40184;53.362;5.216;2024-03-02T12:45:23;5.15;;;1.20;;
54271;SDS011;40184;53.362;5.216;2024-03-02T12:47:49;3.40;;;1.10;;
54271;SDS011;40184;53.362;5.216;2024-03-02T12:50:16;2.97;;;1.38;;
54271;SDS011;40184;53.362;5.216;2024-03-02T12:52:42;8.20;;;1.48;;
54271;SDS011;40184;53.362;5.216;2024-03-02T12:55:09;3.63;;;1.30;;
54271;SDS011;40184;53.362;5.216;2024-03-02T12:57:35;5.13;;;1.75;;
54271;SDS011;40184;53.362;5.216;2024-03-02T13:00:02;6.15;;;1.60;;
54271;SDS011;40184;53.362;5.216;2024-03-02T13:02:35;6.18;;;2.03;;
54271;SDS011;40184;53.362;5.216;2024-03-02T13:05:02;3.65;;;1.30;;
54271;SDS011;40184;53.362;5.216;2024-03-02T13:07:28;11.75;;;3.78;;
54271;SDS011;40184;53.362;5.216;2024-03-02T13:09:55;3.47;;;1.10;;
54271;SDS011;40184;53.362;5.216;2024-03-02T13:12:22;5.60;;;1.23;;
54271;SDS011;40184;53.362;5.216;2024-03-02T13:14:48;3.60;;;1.20;;
54271;SDS011;40184;53.362;5.216;2024-03-02T13:17:16;6.05;;;1.35;;
54271;SDS011;40184;53.362;5.216;2024-03-02T13:19:43;4.35;;;1.48;;
54271;SDS011;40184;53.362;5.216;2024-03-02T13:22:09;5.05;;;1.02;;
54271;SDS011;40184;53.362;5.216;2024-03-02T13:24:35;5.53;;;1.20;;
54271;SDS011;40184;53.362;5.216;2024-03-02T13:27:01;5.30;;;1.23;;
54271;SDS011;40184;53.362;5.216;2024-03-02T13:29:29;7.85;;;1.48;;
54271;SDS011;40184;53.362;5.216;2024-03-02T13:31:55;4.57;;;1.08;;
54271;SDS011;40184;53.362;5.216;2024-03-02T13:34:22;9.73;;;1.83;;
54271;SDS011;40184;53.362;5.216;2024-03-02T13:36:48;4.82;;;1.60;;
54271;SDS011;40184;53.362;5.216;2024-03-02T13:39:15;4.13;;;1.10;;
54271;SDS011;40184;53.362;5.216;2024-03-02T13:41:41;4.00;;;1.00;;
54271;SDS011;40184;53.362;5.216;2024-03-02T13:44:09;7.95;;;1.48;;
54271;SDS011;40184;53.362;5.216;2024-03-02T13:46:36;4.82;;;1.20;;
54271;SDS011;40184;53.362;5.216;2024-03-02T13:49:02;2.42;;;1.00;;
54271;SDS011;40184;53.362;5.216;2024-03-02T13:51:29;3.67;;;1.13;;
54271;SDS011;40184;53.362;5.216;2024-03-02T13:53:55;10.50;;;1.60;;
54271;SDS011;40184;53.362;5.216;2024-03-02T13:56:21;4.78;;;1.25;;
54271;SDS011;40184;53.362;5.216;2024-03-02T13:58:47;4.95;;;1.23;;
54271;SDS011;40184;53.362;5.216;2024-03-02T14:01:13;4.85;;;1.30;;
54271;SDS011;40184;53.362;5.216;2024-03-02T14:03:39;5.68;;;1.33;;
54271;SDS011;40184;53.362;5.216;2024-03-02T14:06:05;5.28;;;1.42;;
54271;SDS011;40184;53.362;5.216;2024-03-02T14:08:31;5.75;;;1.23;;
54271;SDS011;40184;53.362;5.216;2024-03-02T14:11:01;3.03;;;1.45;;
54271;SDS011;40184;53.362;5.216;2024-03-02T14:13:27;6.30;;;1.58;;
54271;SDS011;40184;53.362;5.216;2024-03-02T14:15:54;5.57;;;1.58;;
54271;SDS011;40184;53.362;5.216;2024-03-02T14:18:20;4.25;;;1.00;;
54271;SDS011;40184;53.362;5.216;2024-03-02T14:20:46;4.05;;;1.38;;
54271;SDS011;40184;53.362;5.216;2024-03-02T14:23:18;5.50;;;1.23;;
54271;SDS011;40184;53.362;5.216;2024-03-02T14:25:47;5.10;;;1.40;;
54271;SDS011;40184;53.362;5.216;2024-03-02T14:28:13;6.20;;;1.58;;
54271;SDS011;40184;53.362;5.216;2024-03-02T14:30:41;1.85;;;0.70;;
54271;SDS011;40184;53.362;5.216;2024-03-02T14:33:07;2.67;;;1.00;;
54271;SDS011;40184;53.362;5.216;2024-03-02T14:35:33;4.72;;;1.17;;
54271;SDS011;40184;53.362;5.216;2024-03-02T14:37:59;2.85;;;0.82;;
54271;SDS011;40184;53.362;5.216;2024-03-02T14:40:25;4.93;;;1.25;;
54271;SDS011;40184;53.362;5.216;2024-03-02T14:42:54;4.90;;;0.88;;
54271;SDS011;40184;53.362;5.216;2024-03-02T14:45:20;4.10;;;1.10;;
54271;SDS011;40184;53.362;5.216;2024-03-02T14:47:46;5.97;;;1.00;;
54271;SDS011;40184;53.362;5.216;2024-03-02T14:50:12;6.07;;;1.17;;
54271;SDS011;40184;53.362;5.216;2024-03-02T14:52:41;4.90;;;1.42;;
54271;SDS011;40184;53.362;5.216;2024-03-02T14:55:07;3.30;;;1.13;;